• Join FlightAware (Why Join?)
  • Login
  • US Flag 
04:33AM EST


 

Airport Tracker/Info


-or-


 

Live Flight TrackerFlight Track Log ✈ UCA3599 ✈ 09-Sep-2013 ✈ KBGM - KIAD

Flight Track Log - Related Links

Times and Time Zones

All times are in EDT time to prevent confusion due to time zone crossing. See the UCA3599 flight status page for this flight to view local times or setup timezone preferences in your user account.

Time Position Orientation Groundspeed Altitude Reporting Facility
EDT Latitude Longitude Course Direction KTS MPH feet Rate Location/Type
06:00AM 42.2217 -76.0211 216° Southwest 254 292 3,000  Level New York Center
06:01AM 42.1825 -76.0600 216° Southwest 254 292 4,300 1,320 Climbing New York Center
06:02AM 42.1394 -76.0900 207° Southwest 212 244 5,700 1,260 Climbing New York Center
06:03AM 42.0964 -76.1231 210° Southwest 189 217 6,900 1,080 Climbing New York Center
06:04AM 42.0450 -76.1522 203° Southwest 189 217 7,900 1,080 Climbing New York Center
06:05AM 41.9853 -76.1864 203° Southwest 211 243 9,100 1,200 Climbing New York Center
06:06AM 41.9317 -76.2183 204° Southwest 219 252 10,300 1,200 Climbing New York Center
06:07AM 41.8781 -76.2503 204° Southwest 219 252 11,500 1,080 Climbing New York Center
06:08AM 41.8289 -76.2794 204° Southwest 219 252 12,500 1,140 Climbing New York Center
06:09AM 41.7689 -76.3164 205° Southwest 219 252 13,800 1,140 Climbing New York Center
06:10AM 41.7133 -76.3478 203° Southwest 219 252 14,800 1,020 Climbing New York Center
06:11AM 41.6575 -76.3792 203° Southwest 219 252 15,900 600 Climbing New York Center
06:12AM 41.6039 -76.4136 206° Southwest 224 258 16,000  Climbing New York Center
06:13AM 41.5375 -76.4522 204° Southwest 247 284 16,000  Level New York Center
06:14AM 41.4603 -76.4983 204° Southwest 267 307 16,000  Level New York Center
06:15AM 41.3919 -76.5369 203° Southwest 267 307 16,000  Level New York Center
06:16AM 41.3231 -76.5781 204° Southwest 272 313 16,000  Level New York Center
06:17AM 41.2611 -76.6111 202° Southwest 266 306 16,000  Level New York Center
06:18AM 41.1858 -76.6572 205° Southwest 266 306 16,000  Level New York Center
06:19AM 41.1172 -76.6981 204° Southwest 271 312 16,000  Level New York Center
06:20AM 41.0464 -76.7386 203° Southwest 271 312 16,000  Level New York Center
06:21AM 40.9778 -76.7767 203° Southwest 271 312 16,100  Climbing New York Center
06:22AM 40.9133 -76.8147 204° Southwest 263 303 16,100  Level New York Center
06:23AM 40.8425 -76.8553 203° Southwest 263 303 16,100  Level New York Center
06:24AM 40.7739 -76.8903 201° Southwest 263 303 16,100  Level New York Center
06:25AM 40.6997 -76.9136 193° South 270 311 16,100 -60 Level New York Center
06:26AM 40.6256 -76.9372 194° South 275 316 16,000 -60 Descending New York Center
06:27AM 40.5536 -76.9581 192° South 275 316 16,000  Level New York Center
06:28AM 40.4794 -76.9814 193° South 275 316 16,000  Level New York Center
06:29AM 40.4075 -77.0050 194° South 275 316 16,000 -420 Level New York Center
06:30AM 40.3311 -77.0281 193° South 275 316 15,200 -900 Descending New York Center
06:31AM 40.2592 -77.0514 194° South 294 338 14,200 -1,140 Descending New York Center
06:32AM 40.1703 -77.0761 192° South 294 338 13,000 -1,200 Descending New York Center
06:34AM 40.0500 -77.1167 194° South 295 339 11,300 -1,140 Descending Potomac TRACON
06:35AM 39.9667 -77.1333 189° South 289 333 10,300 -1,080 Descending Potomac TRACON
06:36AM 39.9000 -77.1667 201° Southwest 287 330 9,300 -720 Descending Potomac TRACON
06:36AM 39.8333 -77.2000 201° Southwest 267 307 9,000 -420 Descending Potomac TRACON
06:38AM 39.7667 -77.2500 210° Southwest 260 299 8,500 -720 Descending Potomac TRACON
06:38AM 39.7167 -77.2833 207° Southwest 261 300 7,600 -840 Descending Potomac TRACON
06:39AM 39.6500 -77.3167 201° Southwest 248 285 7,000 -360 Descending Potomac TRACON
06:40AM 39.5833 -77.3167 180° South 248 285 7,000  Level Potomac TRACON
06:41AM 39.5167 -77.3333 191° South 248 285 7,000  Level Potomac TRACON
06:42AM 39.4667 -77.3500 194° South 248 285 7,000 -180 Level Potomac TRACON
06:43AM 39.4000 -77.3667 191° South 251 289 6,700 -900 Descending Potomac TRACON
06:44AM 39.3167 -77.3667 180° South 271 312 5,300 -960 Descending Potomac TRACON
06:45AM 39.2500 -77.3667 180° South 242 278 4,900 -660 Descending Potomac TRACON
06:46AM 39.1833 -77.3667 180° South 256 295 4,000 -480 Descending Potomac TRACON
06:47AM 39.1167 -77.3667 180° South 245 282 4,000 -240 Level Potomac TRACON
06:48AM 39.0500 -77.3500 169° South 247 284 3,600 -540 Descending Potomac TRACON
06:49AM 38.9833 -77.3667 191° South 252 290 3,000 -300 Descending Potomac TRACON
06:50AM 38.9167 -77.3500 169° South 236 272 3,000  Level Potomac TRACON
06:51AM 38.8500 -77.3667 191° South 226 260 3,000 -480 Level Potomac TRACON
06:52AM 38.8167 -77.4167 229° Southwest 249 287 2,100 -660 Descending Potomac TRACON
06:53AM 38.8667 -77.4333 345° North 173 199 1,700 -720 Descending Potomac TRACON
06:54AM 38.9000 -77.4333 360° North 112 129 700 -1,020 Descending Potomac TRACON
06:56AM 38.9333 -77.4500 349° North  Level FlightAware Approximate
07:03AM 38.9474 -77.4599 349° North  Level Estimated
07:04AM 38.9474 -77.4599 349° North  Level Estimated
07:05AM 38.9474 -77.4599 349° North  Level Estimated